Time;durP1;ratioP1;P1;durP2;ratioP2;P2;SDS_P1;SDS_P2;PMS_P1;PMS_P2;Temp;Humidity;BMP_temperature;BMP_pressure;BME280_temperature;BME280_humidity;BME280_pressure;Samples;Min_cycle;Max_cycle;Signal;HPM_P1;HPM_P2
2023/11/02 00:00:58;;;;;;;0.40;0.40;;;8.90;99.90;;;;;;5095514;28;20448;-81
2023/11/02 00:03:32;;;;;;;14.73;0.73;;;8.90;99.90;;;;;;5095210;28;20475;-81
2023/11/02 00:06:22;;;;;;;0.33;0.33;;;9.00;99.90;;;;;;5095368;28;20494;-82
2023/11/02 00:09:18;;;;;;;0.40;0.40;;;9.00;99.90;;;;;;5095305;28;20440;-82
2023/11/02 00:11:53;;;;;;;0.40;0.30;;;8.90;99.90;;;;;;5095549;28;20469;-82
2023/11/02 00:14:20;;;;;;;0.40;0.33;;;8.90;99.90;;;;;;5095209;28;20463;-82
2023/11/02 00:16:48;;;;;;;0.40;0.40;;;8.90;99.90;;;;;;5095259;28;20443;-82
2023/11/02 00:19:29;;;;;;;0.40;0.33;;;8.90;99.90;;;;;;5095012;28;20439;-82
2023/11/02 00:21:58;;;;;;;0.30;0.30;;;8.90;99.90;;;;;;5095358;28;20482;-82
2023/11/02 00:24:26;;;;;;;0.70;0.70;;;8.80;99.90;;;;;;5094986;28;20463;-82
2023/11/02 00:26:53;;;;;;;0.30;0.30;;;8.80;99.90;;;;;;5094925;28;20479;-82
2023/11/02 00:29:20;;;;;;;0.30;0.30;;;8.70;99.90;;;;;;5095140;28;20444;-82
2023/11/02 00:31:47;;;;;;;0.30;0.30;;;8.70;99.90;;;;;;5094903;28;20455;-82
2023/11/02 00:34:15;;;;;;;0.47;0.47;;;8.70;99.90;;;;;;5094485;28;21028;-82
2023/11/02 00:36:42;;;;;;;0.40;0.30;;;8.70;99.90;;;;;;5093577;28;20932;-82
2023/11/02 00:39:10;;;;;;;1.70;0.40;;;8.70;99.90;;;;;;5094771;28;20440;-82
2023/11/02 00:41:37;;;;;;;0.60;0.37;;;8.70;99.90;;;;;;5094877;28;20444;-81
2023/11/02 00:44:05;;;;;;;0.40;0.40;;;8.70;99.90;;;;;;5094991;28;20471;-82
2023/11/02 00:46:33;;;;;;;0.50;0.50;;;8.60;99.90;;;;;;5094287;28;21057;-82
2023/11/02 00:48:59;;;;;;;0.30;0.30;;;8.50;99.90;;;;;;5094677;28;20447;-80
2023/11/02 00:51:30;;;;;;;0.50;0.50;;;8.60;99.90;;;;;;5094793;28;20454;-80
2023/11/02 00:53:58;;;;;;;0.30;0.30;;;8.40;99.90;;;;;;5094462;28;20984;-79
2023/11/02 00:56:29;;;;;;;0.30;0.30;;;8.40;99.90;;;;;;5094255;28;20830;-80
2023/11/02 00:58:57;;;;;;;0.30;0.30;;;8.40;99.90;;;;;;5094764;28;20424;-81
2023/11/02 01:01:26;;;;;;;1.37;0.77;;;8.30;99.90;;;;;;5094188;28;20790;-82
2023/11/02 01:03:55;;;;;;;0.40;0.30;;;8.20;99.90;;;;;;5094560;28;20472;-82
2023/11/02 01:06:26;;;;;;;0.40;0.30;;;8.20;99.90;;;;;;5094371;28;20480;-82
2023/11/02 01:08:56;;;;;;;0.70;0.30;;;8.20;99.90;;;;;;5094664;28;20431;-82
2023/11/02 01:11:28;;;;;;;0.40;0.40;;;8.50;99.90;;;;;;5094367;28;20431;-82
2023/11/02 01:13:56;;;;;;;0.47;0.40;;;8.20;99.90;;;;;;5094545;28;20467;-82
2023/11/02 01:16:22;;;;;;;0.30;0.30;;;8.20;99.90;;;;;;5094367;28;20444;-81
2023/11/02 01:18:49;;;;;;;0.30;0.30;;;8.10;99.90;;;;;;5094109;28;20444;-82
2023/11/02 01:21:17;;;;;;;0.40;0.30;;;8.10;99.90;;;;;;5094515;28;20447;-82
2023/11/02 01:23:44;;;;;;;0.50;0.40;;;8.00;99.90;;;;;;5094095;28;20464;-82
2023/11/02 01:26:54;;;;;;;0.43;0.43;;;7.90;99.90;;;;;;5093727;28;21030;-82
2023/11/02 01:29:21;;;;;;;0.30;0.30;;;7.70;99.90;;;;;;5094185;28;20424;-81
2023/11/02 01:31:49;;;;;;;0.30;0.30;;;7.70;99.90;;;;;;5094135;28;20453;-81
2023/11/02 01:34:20;;;;;;;0.50;0.50;;;7.70;99.90;;;;;;5094050;28;20464;-81
2023/11/02 01:36:48;;;;;;;0.30;0.30;;;7.80;99.90;;;;;;5093793;28;20909;-81
2023/11/02 01:39:48;;;;;;;0.40;0.40;;;7.80;99.90;;;;;;5093907;28;20451;-81
2023/11/02 01:42:23;;;;;;;0.40;0.40;;;7.80;99.90;;;;;;5094073;28;20471;-81
2023/11/02 01:45:06;;;;;;;1.00;0.60;;;7.80;99.90;;;;;;5093785;28;20455;-81
2023/11/02 01:48:00;;;;;;;0.60;0.60;;;7.80;99.90;;;;;;5093621;28;20420;-81
2023/11/02 01:50:33;;;;;;;0.40;0.30;;;7.70;99.90;;;;;;5093631;28;20424;-81
2023/11/02 01:53:28;;;;;;;1.90;0.33;;;7.60;99.90;;;;;;5093620;28;20424;-80
2023/11/02 01:56:07;;;;;;;0.40;0.40;;;7.60;99.90;;;;;;5093303;28;20443;-81
2023/11/02 01:58:48;;;;;;;0.30;0.30;;;7.60;99.90;;;;;;5093803;28;20527;-80
2023/11/02 02:01:23;;;;;;;0.30;0.30;;;7.60;99.90;;;;;;5093617;28;20443;-80
2023/11/02 02:04:00;;;;;;;0.40;0.33;;;7.60;99.90;;;;;;5093117;28;20516;-82
2023/11/02 02:06:35;;;;;;;0.37;0.30;;;7.60;99.90;;;;;;5093421;28;20471;-81
2023/11/02 02:09:12;;;;;;;0.53;0.53;;;7.60;99.90;;;;;;5093236;28;20869;-80
2023/11/02 02:11:50;;;;;;;0.73;0.37;;;7.60;99.90;;;;;;5093181;28;20913;-80
2023/11/02 02:14:34;;;;;;;0.67;0.53;;;7.70;99.90;;;;;;5093417;28;20948;-80
2023/11/02 02:17:10;;;;;;;1.27;0.40;;;7.60;99.90;;;;;;5093412;28;20897;-80
2023/11/02 02:19:54;;;;;;;0.50;0.30;;;7.60;99.90;;;;;;5093380;28;20428;-80
2023/11/02 02:22:25;;;;;;;0.60;0.40;;;7.60;99.90;;;;;;5093503;28;20803;-80
2023/11/02 02:24:59;;;;;;;0.67;0.40;;;7.70;99.90;;;;;;5093100;28;20980;-80
2023/11/02 02:27:51;;;;;;;0.30;0.30;;;7.70;99.90;;;;;;5093049;28;20476;-80
2023/11/02 02:30:51;;;;;;;0.43;0.43;;;7.80;99.90;;;;;;5093448;28;20919;-80
2023/11/02 02:33:45;;;;;;;0.40;0.40;;;7.70;99.90;;;;;;5093000;28;20786;-80
2023/11/02 02:36:17;;;;;;;0.30;0.30;;;7.80;99.90;;;;;;5093257;28;20428;-80
2023/11/02 02:38:47;;;;;;;0.40;0.40;;;7.90;99.90;;;;;;5093138;28;20913;-80
2023/11/02 02:41:17;;;;;;;0.40;0.40;;;7.90;99.90;;;;;;5093089;28;20812;-80
2023/11/02 02:43:46;;;;;;;0.87;0.63;;;7.80;99.90;;;;;;5093104;28;20560;-80
2023/11/02 02:46:16;;;;;;;0.60;0.50;;;7.70;99.90;;;;;;5092836;28;20476;-80
2023/11/02 02:48:43;;;;;;;0.50;0.37;;;7.60;99.90;;;;;;5093266;28;20436;-80
2023/11/02 02:51:13;;;;;;;0.40;0.30;;;7.60;99.90;;;;;;5092755;28;20455;-80
2023/11/02 02:53:44;;;;;;;0.60;0.40;;;7.70;99.90;;;;;;5092879;28;20464;-81
2023/11/02 02:56:13;;;;;;;0.47;0.47;;;7.70;99.90;;;;;;5093262;28;20431;-80
2023/11/02 02:58:45;;;;;;;0.50;0.50;;;7.80;99.90;;;;;;5092999;28;20442;-82
2023/11/02 03:01:15;;;;;;;0.60;0.53;;;7.80;99.90;;;;;;5095616;28;20431;-80
2023/11/02 03:03:42;;;;;;;0.77;0.77;;;7.90;99.90;;;;;;5096656;28;20456;-80
2023/11/02 03:06:11;;;;;;;1.03;0.53;;;7.90;99.90;;;;;;5096292;28;20544;-80
2023/11/02 03:08:41;;;;;;;0.40;0.40;;;7.90;99.90;;;;;;5096648;28;20443;-80
2023/11/02 03:11:10;;;;;;;1.03;0.40;;;7.90;99.90;;;;;;5096553;28;20443;-80
2023/11/02 03:13:39;;;;;;;0.60;0.30;;;8.00;99.90;;;;;;5096423;28;20460;-80
2023/11/02 03:16:09;;;;;;;1.17;0.43;;;8.00;99.90;;;;;;5096651;28;20440;-80
2023/11/02 03:18:39;;;;;;;1.37;0.50;;;8.00;99.90;;;;;;5096571;28;20451;-80
2023/11/02 03:21:06;;;;;;;0.50;0.50;;;7.90;99.90;;;;;;5097318;28;20436;-80
2023/11/02 03:23:42;;;;;;;0.40;0.40;;;7.90;99.90;;;;;;5096851;28;20460;-80
2023/11/02 03:26:20;;;;;;;0.80;0.40;;;7.80;99.90;;;;;;5096824;28;20556;-81
2023/11/02 03:28:56;;;;;;;0.60;0.57;;;7.90;99.90;;;;;;5096816;28;20434;-80
2023/11/02 03:31:34;;;;;;;0.43;0.40;;;7.90;99.90;;;;;;5097446;28;20444;-80
2023/11/02 03:34:11;;;;;;;0.83;0.40;;;7.80;99.90;;;;;;5095676;28;20471;-80
2023/11/02 03:37:02;;;;;;;0.67;0.60;;;7.80;99.90;;;;;;5096085;28;20438;-80
2023/11/02 03:39:43;;;;;;;2.40;1.10;;;7.80;99.90;;;;;;5095974;28;20437;-81
2023/11/02 03:42:19;;;;;;;0.40;0.40;;;7.70;99.90;;;;;;5095962;28;20428;-81
2023/11/02 03:44:55;;;;;;;0.63;0.53;;;7.60;99.90;;;;;;5095660;28;20451;-82
2023/11/02 03:47:38;;;;;;;0.60;0.40;;;7.50;99.90;;;;;;5095730;28;20468;-82
2023/11/02 03:50:13;;;;;;;0.50;0.50;;;7.40;99.90;;;;;;5095778;28;20429;-82
2023/11/02 03:52:52;;;;;;;0.40;0.33;;;7.40;99.90;;;;;;5095810;28;20423;-82
2023/11/02 03:55:32;;;;;;;0.40;0.40;;;7.30;99.90;;;;;;5095588;28;20460;-82
2023/11/02 03:58:05;;;;;;;0.50;0.50;;;7.30;99.90;;;;;;5095575;28;20800;-82
2023/11/02 04:00:35;;;;;;;0.30;0.30;;;7.30;99.90;;;;;;5095577;28;20425;-82
2023/11/02 04:03:03;;;;;;;0.30;0.30;;;7.30;99.90;;;;;;5095155;28;20467;-81
2023/11/02 04:05:37;;;;;;;1.27;0.60;;;7.30;99.90;;;;;;5095459;28;20475;-82
2023/11/02 04:08:10;;;;;;;0.40;0.40;;;7.20;99.90;;;;;;5095461;28;20584;-82
2023/11/02 04:10:38;;;;;;;0.50;0.50;;;7.20;99.90;;;;;;5095324;28;20428;-82
2023/11/02 04:13:20;;;;;;;3.50;0.93;;;7.20;99.90;;;;;;5094898;28;20830;-81
2023/11/02 04:15:47;;;;;;;0.60;0.60;;;7.10;99.90;;;;;;5095324;28;20435;-81
2023/11/02 04:18:13;;;;;;;0.60;0.57;;;7.10;99.90;;;;;;5095147;28;20448;-82
2023/11/02 04:20:40;;;;;;;0.50;0.50;;;7.10;99.90;;;;;;5095075;28;20937;-82
2023/11/02 04:23:08;;;;;;;0.73;0.43;;;7.00;99.90;;;;;;5094773;28;20834;-82
2023/11/02 04:25:34;;;;;;;0.50;0.50;;;7.00;99.90;;;;;;5095057;28;20502;-81
2023/11/02 04:28:01;;;;;;;1.17;0.50;;;7.10;99.90;;;;;;5095039;28;20451;-81
2023/11/02 04:30:31;;;;;;;0.70;0.70;;;7.00;99.90;;;;;;5095241;28;20454;-81
2023/11/02 04:32:57;;;;;;;0.70;0.40;;;7.00;99.90;;;;;;5094693;28;20428;-81
2023/11/02 04:35:24;;;;;;;0.40;0.37;;;7.00;99.90;;;;;;5095057;28;20456;-82
2023/11/02 04:38:04;;;;;;;0.40;0.40;;;7.10;99.90;;;;;;5095026;28;20490;-82
2023/11/02 04:40:32;;;;;;;0.30;0.30;;;7.10;99.90;;;;;;5094722;28;20451;-81
2023/11/02 04:42:59;;;;;;;0.67;0.63;;;7.10;99.90;;;;;;5094712;28;21002;-81
2023/11/02 04:45:26;;;;;;;0.40;0.40;;;7.20;99.90;;;;;;5094705;28;20450;-81
2023/11/02 04:47:54;;;;;;;0.70;0.40;;;7.30;99.90;;;;;;5094290;28;20440;-81
2023/11/02 04:50:21;;;;;;;0.70;0.60;;;7.30;99.90;;;;;;5094607;28;20473;-81
2023/11/02 04:52:48;;;;;;;0.70;0.50;;;7.30;99.90;;;;;;5094296;28;20490;-81
2023/11/02 04:55:15;;;;;;;0.40;0.40;;;7.40;99.90;;;;;;5094138;28;20481;-81
2023/11/02 04:57:42;;;;;;;0.60;0.60;;;7.40;99.90;;;;;;5094453;28;20472;-81
2023/11/02 05:00:10;;;;;;;0.60;0.43;;;7.40;99.90;;;;;;5094471;28;20440;-81
2023/11/02 05:02:36;;;;;;;0.40;0.40;;;7.50;99.90;;;;;;5094216;28;20486;-81
2023/11/02 05:05:05;;;;;;;0.87;0.60;;;7.50;99.90;;;;;;5094314;28;20459;-80
2023/11/02 05:07:32;;;;;;;0.60;0.40;;;7.60;99.90;;;;;;5094434;28;20432;-80
2023/11/02 05:09:59;;;;;;;0.40;0.37;;;7.70;99.90;;;;;;5094247;28;20439;-81
2023/11/02 05:12:26;;;;;;;2.40;0.60;;;7.70;99.90;;;;;;5094233;28;20550;-81
2023/11/02 05:14:53;;;;;;;0.47;0.47;;;7.70;99.90;;;;;;5094214;28;20482;-81
2023/11/02 05:17:20;;;;;;;0.90;0.40;;;7.80;99.90;;;;;;5093835;28;20498;-81
2023/11/02 05:19:46;;;;;;;0.50;0.40;;;7.90;99.90;;;;;;5093749;28;20452;-81
2023/11/02 05:22:15;;;;;;;0.70;0.40;;;7.90;99.90;;;;;;5093774;28;20444;-80
2023/11/02 05:24:41;;;;;;;1.43;0.60;;;7.90;99.90;;;;;;5093709;28;20460;-79
2023/11/02 05:27:08;;;;;;;0.30;0.30;;;8.00;99.90;;;;;;5093925;28;20485;-80
2023/11/02 05:29:35;;;;;;;0.50;0.33;;;8.10;99.90;;;;;;5093933;28;20439;-80
2023/11/02 05:32:02;;;;;;;0.37;0.37;;;8.10;99.90;;;;;;5093480;28;20450;-79
2023/11/02 05:34:29;;;;;;;0.40;0.40;;;8.10;99.90;;;;;;5093823;28;20471;-80
2023/11/02 05:36:55;;;;;;;0.40;0.40;;;8.10;99.90;;;;;;5093675;28;20480;-81
2023/11/02 05:39:23;;;;;;;0.30;0.30;;;8.30;99.90;;;;;;5094066;28;20444;-82
2023/11/02 05:41:50;;;;;;;1.27;0.53;;;8.40;99.90;;;;;;5093784;28;20447;-81
2023/11/02 05:44:17;;;;;;;0.60;0.60;;;8.50;99.90;;;;;;5093400;28;20977;-81
2023/11/02 05:46:44;;;;;;;0.30;0.27;;;8.50;99.90;;;;;;5093632;28;20447;-81
2023/11/02 05:49:10;;;;;;;1.70;0.40;;;8.60;99.90;;;;;;5093576;28;20809;-81
2023/11/02 05:51:37;;;;;;;0.67;0.57;;;8.50;99.90;;;;;;5093724;28;20444;-81
2023/11/02 05:54:04;;;;;;;0.40;0.40;;;8.60;99.90;;;;;;5093439;28;20463;-81
2023/11/02 05:56:32;;;;;;;0.80;0.50;;;8.60;99.90;;;;;;5093467;28;20447;-81
2023/11/02 05:58:59;;;;;;;0.53;0.40;;;8.60;99.90;;;;;;5093501;28;20452;-81
2023/11/02 06:01:26;;;;;;;0.30;0.30;;;8.60;99.90;;;;;;5092962;28;20440;-81
2023/11/02 06:03:52;;;;;;;0.30;0.30;;;8.60;99.90;;;;;;5093101;28;20464;-81
2023/11/02 06:06:20;;;;;;;3.33;0.50;;;8.60;99.90;;;;;;5093397;28;20530;-81
2023/11/02 06:08:47;;;;;;;0.87;0.50;;;8.60;99.90;;;;;;5093102;28;20812;-82
2023/11/02 06:11:14;;;;;;;0.40;0.37;;;8.60;99.90;;;;;;5093418;28;20446;-84
2023/11/02 06:13:42;;;;;;;0.60;0.40;;;8.50;99.90;;;;;;5093550;28;20987;-85
2023/11/02 06:16:11;;;;;;;1.77;0.50;;;8.40;99.90;;;;;;5093587;28;20470;-85
2023/11/02 06:18:38;;;;;;;0.40;0.40;;;8.40;99.90;;;;;;5093598;28;20483;-86
2023/11/02 06:21:05;;;;;;;8.97;0.40;;;8.40;99.90;;;;;;5093534;28;20444;-84
2023/11/02 06:23:33;;;;;;;0.63;0.50;;;8.50;99.90;;;;;;5093240;28;20525;-84
2023/11/02 06:25:59;;;;;;;0.37;0.30;;;8.50;99.90;;;;;;5093554;28;20539;-83
2023/11/02 06:28:26;;;;;;;0.50;0.50;;;8.50;99.90;;;;;;5092984;28;20440;-84
2023/11/02 06:30:54;;;;;;;2.73;0.40;;;8.40;99.90;;;;;;5093277;28;20455;-85
2023/11/02 06:33:25;;;;;;;0.70;0.40;;;8.40;99.90;;;;;;5093219;28;20479;-84
2023/11/02 06:35:52;;;;;;;0.40;0.40;;;8.40;99.90;;;;;;5095587;28;20432;-84
2023/11/02 06:38:21;;;;;;;0.50;0.40;;;8.40;99.90;;;;;;5096772;28;21016;-83
2023/11/02 06:40:48;;;;;;;0.40;0.30;;;8.30;99.90;;;;;;5096826;28;20812;-83
2023/11/02 06:43:15;;;;;;;0.50;0.40;;;8.30;99.90;;;;;;5096989;28;20451;-83
2023/11/02 06:45:42;;;;;;;0.50;0.43;;;8.30;99.90;;;;;;5097017;28;20440;-82
2023/11/02 06:48:10;;;;;;;1.40;0.53;;;8.20;99.90;;;;;;5097003;28;20439;-83
2023/11/02 06:50:36;;;;;;;0.60;0.60;;;8.10;99.90;;;;;;5096617;28;20439;-83
2023/11/02 06:53:03;;;;;;;2.20;0.73;;;8.10;99.90;;;;;;5096897;28;20451;-84
2023/11/02 06:55:30;;;;;;;0.40;0.40;;;8.10;99.90;;;;;;5096467;28;20866;-83
2023/11/02 06:57:57;;;;;;;0.40;0.40;;;8.10;99.90;;;;;;5097519;28;20488;-83
2023/11/02 07:00:24;;;;;;;0.40;0.40;;;8.00;99.90;;;;;;5096420;28;20452;-84
2023/11/02 07:02:51;;;;;;;0.40;0.40;;;8.00;99.90;;;;;;5096269;28;20828;-84
2023/11/02 07:05:19;;;;;;;1.33;0.50;;;8.00;99.90;;;;;;5096313;28;20463;-84
2023/11/02 07:07:49;;;;;;;0.30;0.30;;;8.30;99.90;;;;;;5096594;28;20446;-84
2023/11/02 07:10:16;;;;;;;0.50;0.40;;;8.00;99.90;;;;;;5096522;28;20447;-83
2023/11/02 07:12:43;;;;;;;0.30;0.30;;;8.00;99.90;;;;;;5096361;28;20455;-83
2023/11/02 07:15:10;;;;;;;0.40;0.40;;;8.00;99.90;;;;;;5096405;28;20880;-82
2023/11/02 07:17:37;;;;;;;0.40;0.30;;;8.00;99.90;;;;;;5096342;28;20520;-82
2023/11/02 07:20:05;;;;;;;0.30;0.30;;;8.00;99.90;;;;;;5096282;28;20436;-82
2023/11/02 07:22:33;;;;;;;0.40;0.40;;;8.00;99.90;;;;;;5095966;28;20505;-83
2023/11/02 07:25:01;;;;;;;0.40;0.30;;;7.90;99.90;;;;;;5095859;28;20463;-84
2023/11/02 07:27:30;;;;;;;0.40;0.30;;;7.90;99.90;;;;;;5096754;28;20783;-83
2023/11/02 07:29:57;;;;;;;0.70;0.60;;;8.00;99.90;;;;;;5095803;28;20505;-83
2023/11/02 07:32:24;;;;;;;0.77;0.77;;;7.90;99.90;;;;;;5096105;28;20440;-83
2023/11/02 07:34:51;;;;;;;0.67;0.50;;;7.90;99.90;;;;;;5095769;28;21039;-82
2023/11/02 07:37:18;;;;;;;0.50;0.47;;;7.90;99.90;;;;;;5096318;28;20484;-83
2023/11/02 07:39:46;;;;;;;0.37;0.37;;;7.80;99.90;;;;;;5095870;28;20436;-83
2023/11/02 07:42:13;;;;;;;0.53;0.53;;;7.80;99.90;;;;;;5095600;28;20455;-83
2023/11/02 07:44:40;;;;;;;0.60;0.43;;;7.90;99.90;;;;;;5095446;28;20993;-83
2023/11/02 07:47:07;;;;;;;0.30;0.30;;;7.90;99.90;;;;;;5095112;28;20448;-83
2023/11/02 07:49:33;;;;;;;0.60;0.50;;;7.90;99.90;;;;;;5095433;28;20929;-82
2023/11/02 07:52:01;;;;;;;0.60;0.60;;;7.90;99.90;;;;;;5095744;28;20436;-83
2023/11/02 07:54:28;;;;;;;1.57;0.40;;;7.80;99.90;;;;;;5095535;28;20468;-83
2023/11/02 07:56:56;;;;;;;0.40;0.33;;;7.90;99.90;;;;;;5095255;28;20447;-83
2023/11/02 07:59:23;;;;;;;0.60;0.60;;;7.90;99.90;;;;;;5095556;28;20444;-82
2023/11/02 08:01:49;;;;;;;1.23;0.60;;;8.00;99.90;;;;;;5095169;28;20815;-83
2023/11/02 08:04:16;;;;;;;0.40;0.40;;;8.00;99.90;;;;;;5095551;28;20468;-83
2023/11/02 08:06:43;;;;;;;0.83;0.50;;;8.10;99.90;;;;;;5095100;28;20486;-83
2023/11/02 08:09:10;;;;;;;0.60;0.50;;;8.10;99.90;;;;;;5095037;28;21076;-83
2023/11/02 08:11:40;;;;;;;0.40;0.40;;;8.10;99.90;;;;;;5095019;28;20436;-84
2023/11/02 08:14:08;;;;;;;0.67;0.50;;;8.10;99.90;;;;;;5095287;28;20470;-84
2023/11/02 08:16:35;;;;;;;0.63;0.63;;;8.10;99.90;;;;;;5095478;28;20443;-83
2023/11/02 08:19:02;;;;;;;1.90;0.30;;;8.20;99.90;;;;;;5095189;28;20479;-83
2023/11/02 08:21:29;;;;;;;3.53;0.70;;;8.30;99.90;;;;;;5095239;28;20914;-83
2023/11/02 08:23:57;;;;;;;1.60;0.50;;;8.30;99.90;;;;;;5095068;28;20820;-83
2023/11/02 08:26:25;;;;;;;1.00;0.50;;;8.40;99.90;;;;;;5095207;28;20452;-83
2023/11/02 08:28:52;;;;;;;0.40;0.30;;;8.40;99.90;;;;;;5095012;28;20784;-83
2023/11/02 08:31:24;;;;;;;0.40;0.30;;;8.40;99.90;;;;;;5095130;28;20444;-83
2023/11/02 08:33:50;;;;;;;0.50;0.50;;;8.40;99.90;;;;;;5094769;28;20460;-83
2023/11/02 08:36:17;;;;;;;0.50;0.40;;;8.40;99.90;;;;;;5095102;28;20860;-83
2023/11/02 08:38:44;;;;;;;0.37;0.30;;;8.40;99.90;;;;;;5094895;28;20487;-83
2023/11/02 08:41:19;;;;;;;0.40;0.40;;;8.30;99.90;;;;;;5094792;28;20455;-83
2023/11/02 08:43:47;;;;;;;0.83;0.50;;;8.30;99.90;;;;;;5094780;28;20857;-83
2023/11/02 08:46:16;;;;;;;0.63;0.40;;;8.40;99.90;;;;;;5094748;28;20444;-83
2023/11/02 08:48:45;;;;;;;1.10;0.60;;;8.50;99.90;;;;;;5094420;28;20882;-83
2023/11/02 08:51:13;;;;;;;1.03;0.50;;;8.50;99.90;;;;;;5094238;28;20447;-83
2023/11/02 08:53:40;;;;;;;0.50;0.50;;;8.60;99.90;;;;;;5094456;28;20468;-83
2023/11/02 08:56:09;;;;;;;0.50;0.50;;;8.50;99.90;;;;;;5094236;28;20547;-83
2023/11/02 08:58:41;;;;;;;0.83;0.60;;;8.60;99.90;;;;;;5093285;28;20556;-83
2023/11/02 09:01:08;;;;;;;0.40;0.30;;;8.50;99.90;;;;;;5094188;28;20958;-84
2023/11/02 09:03:35;;;;;;;0.40;0.40;;;8.60;99.90;;;;;;5093813;28;20553;-84
2023/11/02 09:06:04;;;;;;;1.07;0.43;;;8.60;99.90;;;;;;5094338;28;20428;-84
2023/11/02 09:08:32;;;;;;;0.40;0.37;;;8.60;99.90;;;;;;5093902;28;20451;-84
2023/11/02 09:10:59;;;;;;;0.50;0.30;;;8.80;99.90;;;;;;5093904;28;20440;-84
2023/11/02 09:13:25;;;;;;;0.60;0.40;;;8.70;99.90;;;;;;5093820;28;20470;-84
2023/11/02 09:15:53;;;;;;;0.87;0.50;;;8.70;99.90;;;;;;5094158;28;20871;-84
2023/11/02 09:18:20;;;;;;;0.40;0.40;;;8.70;99.90;;;;;;5094003;28;20574;-84
2023/11/02 09:20:47;;;;;;;0.53;0.37;;;8.70;99.90;;;;;;5093728;28;20501;-84
2023/11/02 09:23:15;;;;;;;0.60;0.40;;;8.70;99.90;;;;;;5093600;28;20448;-83
2023/11/02 09:25:43;;;;;;;6.03;0.60;;;8.80;99.90;;;;;;5094131;28;20532;-84
2023/11/02 09:28:09;;;;;;;0.50;0.40;;;8.80;99.90;;;;;;5093624;28;20472;-83
2023/11/02 09:30:38;;;;;;;0.60;0.50;;;8.80;99.90;;;;;;5093539;28;20450;-83
2023/11/02 09:33:05;;;;;;;1.93;0.90;;;8.90;99.90;;;;;;5093750;28;20855;-83
2023/11/02 09:35:32;;;;;;;0.40;0.37;;;8.90;99.90;;;;;;5093734;28;20868;-83
2023/11/02 09:37:58;;;;;;;0.60;0.40;;;9.00;99.90;;;;;;5093387;28;20484;-83
2023/11/02 09:40:27;;;;;;;1.90;0.40;;;9.00;99.90;;;;;;5093717;28;20442;-83
2023/11/02 09:42:54;;;;;;;0.40;0.40;;;9.10;99.90;;;;;;5093397;28;20448;-83
2023/11/02 09:45:21;;;;;;;0.40;0.30;;;9.20;99.90;;;;;;5093575;28;20828;-83
2023/11/02 09:47:48;;;;;;;1.07;0.60;;;9.20;99.90;;;;;;5093309;28;20455;-83
2023/11/02 09:50:15;;;;;;;0.40;0.40;;;9.20;99.90;;;;;;5093577;28;20444;-84
2023/11/02 09:52:42;;;;;;;0.40;0.40;;;9.20;99.90;;;;;;5093226;28;20448;-83
2023/11/02 09:55:10;;;;;;;0.40;0.30;;;9.10;99.90;;;;;;5093152;28;20466;-84
2023/11/02 09:57:39;;;;;;;0.77;0.40;;;9.20;99.90;;;;;;5093335;28;20871;-84
2023/11/02 10:00:08;;;;;;;0.30;0.30;;;9.20;99.90;;;;;;5093541;28;20439;-84
2023/11/02 10:02:35;;;;;;;0.30;0.30;;;9.20;99.90;;;;;;5093241;28;20510;-83
2023/11/02 10:05:03;;;;;;;1.43;0.40;;;9.20;99.90;;;;;;5093072;28;20462;-84
2023/11/02 10:07:30;;;;;;;0.40;0.30;;;9.20;99.90;;;;;;5093432;28;20870;-81
2023/11/02 10:09:57;;;;;;;0.30;0.30;;;9.20;99.90;;;;;;5097527;28;20933;-84
2023/11/02 10:12:23;;;;;;;0.30;0.30;;;9.20;99.90;;;;;;5099793;28;20440;-84
2023/11/02 10:14:51;;;;;;;0.40;0.40;;;9.20;99.90;;;;;;5099767;28;20474;-83
2023/11/02 10:17:20;;;;;;;0.93;0.40;;;9.20;99.90;;;;;;5099808;28;20451;-84
2023/11/02 10:19:46;;;;;;;0.83;0.40;;;9.30;99.90;;;;;;5099680;28;21037;-83
2023/11/02 10:22:13;;;;;;;0.60;0.40;;;9.30;99.90;;;;;;5099815;28;20439;-84
2023/11/02 10:24:40;;;;;;;0.50;0.50;;;9.30;99.90;;;;;;5099642;28;20468;-84
2023/11/02 10:27:07;;;;;;;2.03;0.40;;;9.30;99.90;;;;;;5099775;28;20932;-85
2023/11/02 10:29:35;;;;;;;0.30;0.30;;;9.40;99.90;;;;;;5099770;28;20438;-84
2023/11/02 10:32:04;;;;;;;0.53;0.40;;;9.40;99.90;;;;;;5099737;28;20439;-84
2023/11/02 10:34:31;;;;;;;0.40;0.30;;;9.40;99.90;;;;;;5099848;28;20459;-86
2023/11/02 10:36:58;;;;;;;0.40;0.30;;;9.40;99.90;;;;;;5100134;28;20932;-86
2023/11/02 10:39:25;;;;;;;0.40;0.40;;;9.50;99.90;;;;;;5099859;28;20483;-86
2023/11/02 10:41:57;;;;;;;0.30;0.30;;;9.60;99.90;;;;;;5099521;28;20444;-86
2023/11/02 10:44:28;;;;;;;0.30;0.30;;;9.60;99.90;;;;;;5100069;28;20868;-82
2023/11/02 10:46:58;;;;;;;0.30;0.30;;;9.60;99.90;;;;;;5100066;28;20424;-82
2023/11/02 10:49:28;;;;;;;0.50;0.30;;;9.60;99.90;;;;;;5099749;28;20427;-81
2023/11/02 10:51:57;;;;;;;0.40;0.30;;;9.60;99.90;;;;;;5099464;28;20924;-81
2023/11/02 10:54:38;;;;;;;0.97;0.40;;;9.50;99.90;;;;;;5099431;28;20472;-84
2023/11/02 10:57:15;;;;;;;0.40;0.30;;;9.50;99.90;;;;;;5099755;28;20458;-83
2023/11/02 10:59:43;;;;;;;1.23;0.37;;;9.50;99.90;;;;;;5099699;28;20881;-84
2023/11/02 11:02:12;;;;;;;0.40;0.30;;;9.50;99.90;;;;;;5099341;28;20484;-83
2023/11/02 11:04:42;;;;;;;0.30;0.20;;;9.50;99.90;;;;;;5099649;28;20478;-84
2023/11/02 11:07:10;;;;;;;0.40;0.30;;;9.40;99.90;;;;;;5099372;28;20426;-83
2023/11/02 11:09:38;;;;;;;0.30;0.30;;;9.40;99.90;;;;;;5099605;28;20462;-83
2023/11/02 11:12:06;;;;;;;0.40;0.40;;;9.40;99.90;;;;;;5099259;28;20471;-83
2023/11/02 11:14:35;;;;;;;0.30;0.30;;;9.50;99.90;;;;;;5099458;28;20468;-84
2023/11/02 11:17:02;;;;;;;0.30;0.20;;;9.60;99.90;;;;;;5099578;28;20534;-83
2023/11/02 11:19:31;;;;;;;0.50;0.40;;;9.50;99.90;;;;;;5099446;28;20887;-84
2023/11/02 11:22:01;;;;;;;0.40;0.40;;;9.40;99.90;;;;;;5095679;28;20447;-85
2023/11/02 11:24:32;;;;;;;0.40;0.40;;;9.40;99.90;;;;;;5095999;28;20547;-84
2023/11/02 11:27:02;;;;;;;0.30;0.30;;;9.40;99.90;;;;;;5095932;28;20996;-85
2023/11/02 11:29:36;;;;;;;0.30;0.30;;;9.40;99.90;;;;;;5096193;28;20439;-84
2023/11/02 11:32:04;;;;;;;0.83;0.40;;;9.30;99.90;;;;;;5096144;28;20436;-85
2023/11/02 11:35:05;;;;;;;0.40;0.30;;;9.30;99.90;;;;;;5096140;28;20490;-85
2023/11/02 11:37:40;;;;;;;0.30;0.20;;;9.30;99.90;;;;;;5095845;28;20447;-85
2023/11/02 11:40:10;;;;;;;0.30;0.30;;;9.30;99.90;;;;;;5095702;28;20459;-85
2023/11/02 11:43:00;;;;;;;0.30;0.20;;;9.30;99.90;;;;;;5096034;28;20984;-84
2023/11/02 11:45:30;;;;;;;0.30;0.30;;;9.30;99.90;;;;;;5095996;28;20420;-83
2023/11/02 11:47:57;;;;;;;0.30;0.30;;;9.20;99.90;;;;;;5095918;28;20470;-86
2023/11/02 11:50:32;;;;;;;0.30;0.30;;;9.10;99.90;;;;;;5095706;28;20452;-86
2023/11/02 11:53:11;;;;;;;1.23;0.30;;;9.20;99.90;;;;;;5095900;28;20439;-85
2023/11/02 11:55:38;;;;;;;0.40;0.30;;;9.20;99.90;;;;;;5095852;28;20428;-83
2023/11/02 11:58:08;;;;;;;0.30;0.30;;;9.20;99.90;;;;;;5095534;28;20444;-85
2023/11/02 12:00:35;;;;;;;0.40;0.30;;;9.20;99.90;;;;;;5095508;28;20483;-85
2023/11/02 12:03:04;;;;;;;0.30;0.30;;;9.20;99.90;;;;;;5095267;28;20471;-86
2023/11/02 12:05:54;;;;;;;0.40;0.30;;;9.20;99.90;;;;;;5105790;28;20448;-85
2023/11/02 12:08:25;;;;;;;0.37;0.33;;;9.20;99.90;;;;;;5095405;28;20501;-86
2023/11/02 12:10:57;;;;;;;0.30;0.20;;;9.20;99.90;;;;;;5095661;28;20438;-86
2023/11/02 12:13:24;;;;;;;0.40;0.40;;;9.10;99.90;;;;;;5096023;28;21002;-86
2023/11/02 12:15:53;;;;;;;0.30;0.30;;;9.20;99.90;;;;;;5095359;28;20444;-87
2023/11/02 12:18:23;;;;;;;0.30;0.20;;;9.20;99.90;;;;;;5095164;28;20502;-87
2023/11/02 12:20:50;;;;;;;0.30;0.20;;;9.10;99.90;;;;;;5095591;28;20435;-85
2023/11/02 12:23:17;;;;;;;0.30;0.30;;;9.10;99.90;;;;;;5095318;28;20451;-86
2023/11/02 12:25:45;;;;;;;1.67;0.40;;;9.10;99.90;;;;;;5095162;28;20447;-83
2023/11/02 12:28:12;;;;;;;0.30;0.30;;;8.90;99.90;;;;;;5094811;28;20444;-84
2023/11/02 12:30:43;;;;;;;0.43;0.30;;;8.90;99.90;;;;;;5095151;28;20856;-84
2023/11/02 12:33:11;;;;;;;0.33;0.30;;;8.80;99.90;;;;;;5093700;28;20958;-84
2023/11/02 12:35:38;;;;;;;0.40;0.40;;;8.80;99.90;;;;;;5094620;28;20941;-84
2023/11/02 12:38:07;;;;;;;0.30;0.30;;;8.90;99.90;;;;;;5094616;28;20443;-84
2023/11/02 12:43:27;;;;;;;0.30;0.27;;;8.90;99.90;;;;;;5091310;28;20518;-84
2023/11/02 12:46:02;;;;;;;0.30;0.20;;;8.90;99.90;;;;;;5090932;28;20451;-84
2023/11/02 12:48:30;;;;;;;0.30;0.30;;;9.00;99.90;;;;;;5091005;28;20439;-83
2023/11/02 12:50:57;;;;;;;0.40;0.30;;;8.90;99.90;;;;;;5090766;28;20432;-84
2023/11/02 12:53:30;;;;;;;0.40;0.30;;;9.00;99.90;;;;;;5090601;28;20488;-83
2023/11/02 12:55:58;;;;;;;0.30;0.20;;;8.90;99.90;;;;;;5090757;28;20432;-84
2023/11/02 12:58:27;;;;;;;0.40;0.40;;;8.90;99.90;;;;;;5090708;28;20448;-83
2023/11/02 13:00:57;;;;;;;0.40;0.30;;;8.80;99.90;;;;;;5090606;28;20444;-84
2023/11/02 13:03:25;;;;;;;5.03;0.50;;;8.80;99.90;;;;;;5090423;28;20468;-83
2023/11/02 13:05:52;;;;;;;0.30;0.20;;;8.70;99.90;;;;;;5090494;28;20466;-83
2023/11/02 13:08:20;;;;;;;0.60;0.40;;;8.70;99.90;;;;;;5090485;28;20450;-84
2023/11/02 13:10:47;;;;;;;0.30;0.30;;;8.80;99.90;;;;;;5090509;28;20444;-82
2023/11/02 13:13:13;;;;;;;0.40;0.30;;;8.70;99.90;;;;;;5089944;28;20467;-82
2023/11/02 13:15:41;;;;;;;0.30;0.20;;;8.70;99.90;;;;;;5090403;28;20444;-84